Decoded Metar for PAVA (Chevak in AK, USA) (IATA:N/A) | Meteo·Mobile Aviation Weather
aviador You're here:

PAVA Decoded Metar

Chevak in AK, USA
Report Time2019-07-16 09:56:00
UTC Time2019-07-16 10:14:05
Flight Rules mvfr MVFR
Wind150° at 03 kt
W.Decomp.*RWY 20: 1.4 kt HW 2.7 kt LCW
Visibility8047 m
Phenomena:Rain
Mist
Clouds:Few 041 Hf
Overcast 065 Hf
Expected CloudBase > 800 ft AGL from Temp-Dew spread
Ceiling6,500 ft
Temp15°C (ISA 0)
Dew Point13°C (88% RH)
AAT14.9°C
QNH1004 hPa
Density Alt597 ft
Elevation75 ft
Report Wrong Elevation
Raw Report
PAVA 160956Z AUTO 15003KT 5SM RA BR FEW041 OVC065 15/13 A2965 RMK
AO2 SLP123 T01500128 PNO $=

Extra information for PAVA:More info

Airport Information Weather charts Add Link Nearby Venues Social comments

AIRNAV info for PAVA